sensor_id;sensor_type;location;lat;lon;timestamp;P1;durP1;ratioP1;P2;durP2;ratioP2
59434;SDS011;45241;49.768;8.636;2023-05-16T00:00:06;13.20;;;8.70;;
59434;SDS011;45241;49.768;8.636;2023-05-16T00:02:33;12.23;;;9.00;;
59434;SDS011;45241;49.768;8.636;2023-05-16T00:05:00;10.25;;;8.10;;
59434;SDS011;45241;49.768;8.636;2023-05-16T00:07:26;11.25;;;8.35;;
59434;SDS011;45241;49.768;8.636;2023-05-16T00:09:51;11.43;;;8.75;;
59434;SDS011;45241;49.768;8.636;2023-05-16T00:12:16;12.35;;;9.10;;
59434;SDS011;45241;49.768;8.636;2023-05-16T00:14:43;11.60;;;8.25;;
59434;SDS011;45241;49.768;8.636;2023-05-16T00:17:09;12.27;;;8.68;;
59434;SDS011;45241;49.768;8.636;2023-05-16T00:19:36;11.45;;;8.85;;
59434;SDS011;45241;49.768;8.636;2023-05-16T00:22:03;10.75;;;8.15;;
59434;SDS011;45241;49.768;8.636;2023-05-16T00:24:29;11.60;;;8.85;;
59434;SDS011;45241;49.768;8.636;2023-05-16T00:26:54;14.27;;;9.55;;
59434;SDS011;45241;49.768;8.636;2023-05-16T00:29:20;11.00;;;8.75;;
59434;SDS011;45241;49.768;8.636;2023-05-16T00:31:46;10.98;;;8.80;;
59434;SDS011;45241;49.768;8.636;2023-05-16T00:34:11;13.50;;;8.77;;
59434;SDS011;45241;49.768;8.636;2023-05-16T00:36:36;14.05;;;9.77;;
59434;SDS011;45241;49.768;8.636;2023-05-16T00:39:02;13.27;;;10.07;;
59434;SDS011;45241;49.768;8.636;2023-05-16T00:41:28;13.55;;;9.88;;
59434;SDS011;45241;49.768;8.636;2023-05-16T00:43:53;15.88;;;10.80;;
59434;SDS011;45241;49.768;8.636;2023-05-16T00:46:19;13.68;;;9.80;;
59434;SDS011;45241;49.768;8.636;2023-05-16T00:48:44;14.48;;;9.95;;
59434;SDS011;45241;49.768;8.636;2023-05-16T00:51:09;15.45;;;10.82;;
59434;SDS011;45241;49.768;8.636;2023-05-16T00:53:35;14.60;;;10.65;;
59434;SDS011;45241;49.768;8.636;2023-05-16T00:56:01;986.53;;;95.47;;
59434;SDS011;45241;49.768;8.636;2023-05-16T00:58:27;861.70;;;85.68;;
59434;SDS011;45241;49.768;8.636;2023-05-16T01:00:56;17.98;;;11.32;;
59434;SDS011;45241;49.768;8.636;2023-05-16T01:03:22;17.00;;;11.23;;
59434;SDS011;45241;49.768;8.636;2023-05-16T01:05:48;15.77;;;11.35;;
59434;SDS011;45241;49.768;8.636;2023-05-16T01:08:13;17.92;;;12.18;;
59434;SDS011;45241;49.768;8.636;2023-05-16T01:10:43;89.53;;;58.60;;
59434;SDS011;45241;49.768;8.636;2023-05-16T01:13:30;92.38;;;42.15;;
59434;SDS011;45241;49.768;8.636;2023-05-16T01:18:56;17.95;;;11.25;;
59434;SDS011;45241;49.768;8.636;2023-05-16T01:21:36;17.80;;;11.60;;
59434;SDS011;45241;49.768;8.636;2023-05-16T01:24:12;18.88;;;12.43;;
59434;SDS011;45241;49.768;8.636;2023-05-16T01:26:45;16.90;;;11.88;;
59434;SDS011;45241;49.768;8.636;2023-05-16T01:29:10;18.25;;;12.27;;
59434;SDS011;45241;49.768;8.636;2023-05-16T01:31:36;16.35;;;12.27;;
59434;SDS011;45241;49.768;8.636;2023-05-16T01:34:01;17.20;;;11.77;;
59434;SDS011;45241;49.768;8.636;2023-05-16T01:39:14;18.23;;;12.25;;
59434;SDS011;45241;49.768;8.636;2023-05-16T01:41:50;19.48;;;12.32;;
59434;SDS011;45241;49.768;8.636;2023-05-16T01:44:28;22.00;;;14.07;;
59434;SDS011;45241;49.768;8.636;2023-05-16T01:46:57;19.85;;;12.05;;
59434;SDS011;45241;49.768;8.636;2023-05-16T01:49:40;19.60;;;13.35;;
59434;SDS011;45241;49.768;8.636;2023-05-16T01:52:14;19.67;;;14.00;;
59434;SDS011;45241;49.768;8.636;2023-05-16T01:54:44;19.45;;;13.10;;
59434;SDS011;45241;49.768;8.636;2023-05-16T01:57:12;22.17;;;15.30;;
59434;SDS011;45241;49.768;8.636;2023-05-16T01:59:37;25.10;;;15.80;;
59434;SDS011;45241;49.768;8.636;2023-05-16T02:02:04;24.15;;;15.45;;
59434;SDS011;45241;49.768;8.636;2023-05-16T02:04:30;24.20;;;14.88;;
59434;SDS011;45241;49.768;8.636;2023-05-16T02:06:55;22.42;;;14.95;;
59434;SDS011;45241;49.768;8.636;2023-05-16T02:09:21;25.35;;;14.45;;
59434;SDS011;45241;49.768;8.636;2023-05-16T02:11:46;24.08;;;14.80;;
59434;SDS011;45241;49.768;8.636;2023-05-16T02:14:12;25.58;;;15.32;;
59434;SDS011;45241;49.768;8.636;2023-05-16T02:16:38;26.73;;;14.98;;
59434;SDS011;45241;49.768;8.636;2023-05-16T02:19:03;26.05;;;16.77;;
59434;SDS011;45241;49.768;8.636;2023-05-16T02:21:28;26.95;;;16.95;;
59434;SDS011;45241;49.768;8.636;2023-05-16T02:23:55;26.17;;;16.88;;
59434;SDS011;45241;49.768;8.636;2023-05-16T02:26:20;27.48;;;17.08;;
59434;SDS011;45241;49.768;8.636;2023-05-16T02:28:45;27.52;;;17.05;;
59434;SDS011;45241;49.768;8.636;2023-05-16T02:31:13;29.98;;;17.60;;
59434;SDS011;45241;49.768;8.636;2023-05-16T02:33:50;29.17;;;18.95;;
59434;SDS011;45241;49.768;8.636;2023-05-16T02:36:15;26.58;;;18.10;;
59434;SDS011;45241;49.768;8.636;2023-05-16T02:38:40;31.98;;;19.20;;
59434;SDS011;45241;49.768;8.636;2023-05-16T02:41:05;29.67;;;19.00;;
59434;SDS011;45241;49.768;8.636;2023-05-16T02:43:31;27.27;;;18.55;;
59434;SDS011;45241;49.768;8.636;2023-05-16T02:45:56;24.63;;;16.98;;
59434;SDS011;45241;49.768;8.636;2023-05-16T02:48:21;25.60;;;16.48;;
59434;SDS011;45241;49.768;8.636;2023-05-16T02:50:47;27.13;;;18.27;;
59434;SDS011;45241;49.768;8.636;2023-05-16T02:53:12;26.83;;;17.35;;
59434;SDS011;45241;49.768;8.636;2023-05-16T02:55:37;26.05;;;16.35;;
59434;SDS011;45241;49.768;8.636;2023-05-16T02:58:03;22.90;;;15.40;;
59434;SDS011;45241;49.768;8.636;2023-05-16T03:00:29;21.63;;;14.88;;
59434;SDS011;45241;49.768;8.636;2023-05-16T03:02:54;26.63;;;16.75;;
59434;SDS011;45241;49.768;8.636;2023-05-16T03:05:19;25.50;;;17.08;;
59434;SDS011;45241;49.768;8.636;2023-05-16T03:07:45;24.75;;;16.48;;
59434;SDS011;45241;49.768;8.636;2023-05-16T03:10:10;27.67;;;17.27;;
59434;SDS011;45241;49.768;8.636;2023-05-16T03:12:36;25.58;;;16.77;;
59434;SDS011;45241;49.768;8.636;2023-05-16T03:15:01;25.00;;;16.48;;
59434;SDS011;45241;49.768;8.636;2023-05-16T03:17:28;27.33;;;18.27;;
59434;SDS011;45241;49.768;8.636;2023-05-16T03:19:53;25.58;;;16.70;;
59434;SDS011;45241;49.768;8.636;2023-05-16T03:22:18;24.38;;;16.88;;
59434;SDS011;45241;49.768;8.636;2023-05-16T03:24:43;27.52;;;17.60;;
59434;SDS011;45241;49.768;8.636;2023-05-16T03:27:09;25.30;;;16.92;;
59434;SDS011;45241;49.768;8.636;2023-05-16T03:29:35;31.13;;;18.23;;
59434;SDS011;45241;49.768;8.636;2023-05-16T03:32:00;25.77;;;17.88;;
59434;SDS011;45241;49.768;8.636;2023-05-16T03:34:26;29.30;;;18.45;;
59434;SDS011;45241;49.768;8.636;2023-05-16T03:36:52;25.60;;;17.85;;
59434;SDS011;45241;49.768;8.636;2023-05-16T03:39:17;25.27;;;16.92;;
59434;SDS011;45241;49.768;8.636;2023-05-16T03:41:43;24.33;;;16.95;;
59434;SDS011;45241;49.768;8.636;2023-05-16T03:44:08;25.25;;;17.00;;
59434;SDS011;45241;49.768;8.636;2023-05-16T03:46:34;23.83;;;16.40;;
59434;SDS011;45241;49.768;8.636;2023-05-16T03:48:59;24.70;;;17.48;;
59434;SDS011;45241;49.768;8.636;2023-05-16T03:51:25;26.00;;;17.38;;
59434;SDS011;45241;49.768;8.636;2023-05-16T03:53:50;25.63;;;17.08;;
59434;SDS011;45241;49.768;8.636;2023-05-16T03:56:15;25.38;;;17.13;;
59434;SDS011;45241;49.768;8.636;2023-05-16T03:58:41;25.60;;;17.27;;
59434;SDS011;45241;49.768;8.636;2023-05-16T04:01:06;27.77;;;17.63;;
59434;SDS011;45241;49.768;8.636;2023-05-16T04:03:31;24.02;;;16.67;;
59434;SDS011;45241;49.768;8.636;2023-05-16T04:05:57;23.88;;;16.52;;
59434;SDS011;45241;49.768;8.636;2023-05-16T04:08:23;23.75;;;16.05;;
59434;SDS011;45241;49.768;8.636;2023-05-16T04:10:49;23.35;;;15.57;;
59434;SDS011;45241;49.768;8.636;2023-05-16T04:13:15;21.77;;;15.25;;
59434;SDS011;45241;49.768;8.636;2023-05-16T04:15:40;21.58;;;15.23;;
59434;SDS011;45241;49.768;8.636;2023-05-16T04:18:06;21.90;;;14.43;;
59434;SDS011;45241;49.768;8.636;2023-05-16T04:20:31;23.13;;;15.63;;
59434;SDS011;45241;49.768;8.636;2023-05-16T04:22:56;24.02;;;15.45;;
59434;SDS011;45241;49.768;8.636;2023-05-16T04:25:21;22.90;;;15.35;;
59434;SDS011;45241;49.768;8.636;2023-05-16T04:27:47;21.73;;;15.27;;
59434;SDS011;45241;49.768;8.636;2023-05-16T04:30:12;22.92;;;15.13;;
59434;SDS011;45241;49.768;8.636;2023-05-16T04:32:38;22.92;;;14.45;;
59434;SDS011;45241;49.768;8.636;2023-05-16T04:35:04;25.02;;;16.15;;
59434;SDS011;45241;49.768;8.636;2023-05-16T04:37:31;21.25;;;13.85;;
59434;SDS011;45241;49.768;8.636;2023-05-16T04:39:56;20.42;;;14.30;;
59434;SDS011;45241;49.768;8.636;2023-05-16T04:42:21;20.00;;;14.48;;
59434;SDS011;45241;49.768;8.636;2023-05-16T04:44:48;22.23;;;14.30;;
59434;SDS011;45241;49.768;8.636;2023-05-16T04:47:14;20.80;;;14.40;;
59434;SDS011;45241;49.768;8.636;2023-05-16T04:49:39;22.15;;;14.77;;
59434;SDS011;45241;49.768;8.636;2023-05-16T04:52:05;21.40;;;13.27;;
59434;SDS011;45241;49.768;8.636;2023-05-16T04:54:32;20.02;;;14.23;;
59434;SDS011;45241;49.768;8.636;2023-05-16T04:56:58;21.73;;;14.73;;
59434;SDS011;45241;49.768;8.636;2023-05-16T04:59:23;21.63;;;14.57;;
59434;SDS011;45241;49.768;8.636;2023-05-16T05:01:48;21.55;;;14.50;;
59434;SDS011;45241;49.768;8.636;2023-05-16T05:04:14;22.48;;;14.60;;
59434;SDS011;45241;49.768;8.636;2023-05-16T05:06:39;21.75;;;14.10;;
59434;SDS011;45241;49.768;8.636;2023-05-16T05:09:05;23.58;;;15.23;;
59434;SDS011;45241;49.768;8.636;2023-05-16T05:11:30;23.55;;;14.88;;
59434;SDS011;45241;49.768;8.636;2023-05-16T05:13:56;24.30;;;15.68;;
59434;SDS011;45241;49.768;8.636;2023-05-16T05:16:21;26.42;;;15.90;;
59434;SDS011;45241;49.768;8.636;2023-05-16T05:18:47;23.88;;;15.02;;
59434;SDS011;45241;49.768;8.636;2023-05-16T05:21:12;23.00;;;14.95;;
59434;SDS011;45241;49.768;8.636;2023-05-16T05:23:38;22.48;;;14.65;;
59434;SDS011;45241;49.768;8.636;2023-05-16T05:26:03;23.52;;;14.63;;
59434;SDS011;45241;49.768;8.636;2023-05-16T05:28:29;21.75;;;13.48;;
59434;SDS011;45241;49.768;8.636;2023-05-16T05:30:54;23.27;;;13.32;;
59434;SDS011;45241;49.768;8.636;2023-05-16T05:33:22;19.63;;;12.32;;
59434;SDS011;45241;49.768;8.636;2023-05-16T05:35:51;21.10;;;12.85;;
59434;SDS011;45241;49.768;8.636;2023-05-16T05:38:18;16.88;;;11.07;;
59434;SDS011;45241;49.768;8.636;2023-05-16T05:40:43;14.10;;;9.82;;
59434;SDS011;45241;49.768;8.636;2023-05-16T05:43:08;17.73;;;10.32;;
59434;SDS011;45241;49.768;8.636;2023-05-16T05:45:34;16.00;;;9.48;;
59434;SDS011;45241;49.768;8.636;2023-05-16T05:47:59;13.30;;;8.65;;
59434;SDS011;45241;49.768;8.636;2023-05-16T05:50:25;15.77;;;8.30;;
59434;SDS011;45241;49.768;8.636;2023-05-16T05:52:50;12.45;;;7.60;;
59434;SDS011;45241;49.768;8.636;2023-05-16T05:55:15;12.57;;;7.22;;
59434;SDS011;45241;49.768;8.636;2023-05-16T05:57:41;9.45;;;6.13;;
59434;SDS011;45241;49.768;8.636;2023-05-16T06:00:06;9.20;;;6.05;;
59434;SDS011;45241;49.768;8.636;2023-05-16T06:02:32;7.93;;;4.22;;
59434;SDS011;45241;49.768;8.636;2023-05-16T06:04:57;9.32;;;4.18;;
59434;SDS011;45241;49.768;8.636;2023-05-16T06:07:22;5.57;;;3.10;;
59434;SDS011;45241;49.768;8.636;2023-05-16T06:09:48;4.78;;;3.10;;
59434;SDS011;45241;49.768;8.636;2023-05-16T06:12:13;6.03;;;2.63;;
59434;SDS011;45241;49.768;8.636;2023-05-16T06:14:39;4.53;;;3.17;;
59434;SDS011;45241;49.768;8.636;2023-05-16T06:17:04;3.47;;;2.42;;
59434;SDS011;45241;49.768;8.636;2023-05-16T06:19:29;3.22;;;2.15;;
59434;SDS011;45241;49.768;8.636;2023-05-16T06:21:55;2.90;;;2.00;;
59434;SDS011;45241;49.768;8.636;2023-05-16T06:24:20;2.33;;;1.90;;
59434;SDS011;45241;49.768;8.636;2023-05-16T06:26:46;3.25;;;1.85;;
59434;SDS011;45241;49.768;8.636;2023-05-16T06:29:14;2.20;;;1.60;;
59434;SDS011;45241;49.768;8.636;2023-05-16T06:31:39;1.75;;;1.33;;
59434;SDS011;45241;49.768;8.636;2023-05-16T06:34:05;4.25;;;1.70;;
59434;SDS011;45241;49.768;8.636;2023-05-16T06:36:30;1.80;;;1.50;;
59434;SDS011;45241;49.768;8.636;2023-05-16T06:38:56;1.85;;;1.50;;
59434;SDS011;45241;49.768;8.636;2023-05-16T06:41:21;1.75;;;1.40;;
59434;SDS011;45241;49.768;8.636;2023-05-16T06:43:46;1.80;;;1.25;;
59434;SDS011;45241;49.768;8.636;2023-05-16T06:46:11;1.60;;;1.30;;
59434;SDS011;45241;49.768;8.636;2023-05-16T06:48:37;1.33;;;1.20;;
59434;SDS011;45241;49.768;8.636;2023-05-16T06:51:02;2.13;;;1.30;;
59434;SDS011;45241;49.768;8.636;2023-05-16T06:53:28;1.63;;;1.50;;
59434;SDS011;45241;49.768;8.636;2023-05-16T06:55:53;1.20;;;1.10;;
59434;SDS011;45241;49.768;8.636;2023-05-16T06:58:19;2.72;;;1.38;;
59434;SDS011;45241;49.768;8.636;2023-05-16T07:00:44;1.77;;;1.30;;
59434;SDS011;45241;49.768;8.636;2023-05-16T07:03:10;1.77;;;1.20;;
59434;SDS011;45241;49.768;8.636;2023-05-16T07:05:35;1.83;;;1.30;;
59434;SDS011;45241;49.768;8.636;2023-05-16T07:08:01;2.65;;;1.45;;
59434;SDS011;45241;49.768;8.636;2023-05-16T07:10:26;1.75;;;1.50;;
59434;SDS011;45241;49.768;8.636;2023-05-16T07:12:51;1.67;;;1.40;;
59434;SDS011;45241;49.768;8.636;2023-05-16T07:15:17;1.38;;;1.00;;
59434;SDS011;45241;49.768;8.636;2023-05-16T07:17:42;2.90;;;1.00;;
59434;SDS011;45241;49.768;8.636;2023-05-16T07:20:08;2.08;;;0.90;;
59434;SDS011;45241;49.768;8.636;2023-05-16T07:22:37;1.58;;;1.30;;
59434;SDS011;45241;49.768;8.636;2023-05-16T07:25:03;2.70;;;0.90;;
59434;SDS011;45241;49.768;8.636;2023-05-16T07:27:29;1.63;;;0.93;;
59434;SDS011;45241;49.768;8.636;2023-05-16T07:29:55;9.70;;;1.30;;
59434;SDS011;45241;49.768;8.636;2023-05-16T07:32:21;6.15;;;1.58;;
59434;SDS011;45241;49.768;8.636;2023-05-16T07:34:46;5.43;;;1.30;;
59434;SDS011;45241;49.768;8.636;2023-05-16T07:37:12;1.30;;;1.15;;
59434;SDS011;45241;49.768;8.636;2023-05-16T07:39:39;2.45;;;1.33;;
59434;SDS011;45241;49.768;8.636;2023-05-16T07:42:07;1.70;;;1.20;;
59434;SDS011;45241;49.768;8.636;2023-05-16T07:44:33;2.38;;;1.73;;
59434;SDS011;45241;49.768;8.636;2023-05-16T07:46:58;4.68;;;3.97;;
59434;SDS011;45241;49.768;8.636;2023-05-16T07:49:24;3.03;;;2.40;;
59434;SDS011;45241;49.768;8.636;2023-05-16T07:51:50;2.92;;;1.30;;
59434;SDS011;45241;49.768;8.636;2023-05-16T07:54:15;3.45;;;1.20;;
59434;SDS011;45241;49.768;8.636;2023-05-16T07:56:40;1.50;;;1.25;;
59434;SDS011;45241;49.768;8.636;2023-05-16T07:59:06;2.58;;;1.30;;
59434;SDS011;45241;49.768;8.636;2023-05-16T08:01:31;2.42;;;1.55;;
59434;SDS011;45241;49.768;8.636;2023-05-16T08:03:57;2.10;;;1.30;;
59434;SDS011;45241;49.768;8.636;2023-05-16T08:06:22;3.65;;;1.50;;
59434;SDS011;45241;49.768;8.636;2023-05-16T08:08:48;2.50;;;2.30;;
59434;SDS011;45241;49.768;8.636;2023-05-16T08:11:14;2.13;;;1.70;;
59434;SDS011;45241;49.768;8.636;2023-05-16T08:13:39;2.92;;;1.90;;
59434;SDS011;45241;49.768;8.636;2023-05-16T08:16:05;3.58;;;1.63;;
59434;SDS011;45241;49.768;8.636;2023-05-16T08:18:30;1.88;;;1.30;;
59434;SDS011;45241;49.768;8.636;2023-05-16T08:20:56;2.65;;;1.48;;
59434;SDS011;45241;49.768;8.636;2023-05-16T08:23:21;2.40;;;1.60;;
59434;SDS011;45241;49.768;8.636;2023-05-16T08:25:46;2.22;;;1.45;;
59434;SDS011;45241;49.768;8.636;2023-05-16T08:28:12;2.38;;;1.70;;
59434;SDS011;45241;49.768;8.636;2023-05-16T08:30:37;1.88;;;1.40;;
59434;SDS011;45241;49.768;8.636;2023-05-16T08:33:02;3.45;;;1.50;;
59434;SDS011;45241;49.768;8.636;2023-05-16T08:35:29;2.80;;;1.48;;
59434;SDS011;45241;49.768;8.636;2023-05-16T08:37:55;4.40;;;3.38;;
59434;SDS011;45241;49.768;8.636;2023-05-16T08:40:21;3.90;;;2.60;;
59434;SDS011;45241;49.768;8.636;2023-05-16T08:42:50;4.35;;;3.10;;
59434;SDS011;45241;49.768;8.636;2023-05-16T08:45:15;5.72;;;2.58;;
59434;SDS011;45241;49.768;8.636;2023-05-16T08:47:41;3.42;;;2.35;;
59434;SDS011;45241;49.768;8.636;2023-05-16T08:50:08;0.90;;;0.73;;
59434;SDS011;45241;49.768;8.636;2023-05-16T08:52:34;1.10;;;0.70;;
59434;SDS011;45241;49.768;8.636;2023-05-16T08:55:03;0.52;;;0.50;;
59434;SDS011;45241;49.768;8.636;2023-05-16T08:57:35;0.45;;;0.38;;
59434;SDS011;45241;49.768;8.636;2023-05-16T09:00:01;0.73;;;0.30;;
59434;SDS011;45241;49.768;8.636;2023-05-16T09:02:31;6.72;;;0.50;;
59434;SDS011;45241;49.768;8.636;2023-05-16T09:04:56;1.20;;;0.43;;
59434;SDS011;45241;49.768;8.636;2023-05-16T09:07:23;1.75;;;0.40;;
59434;SDS011;45241;49.768;8.636;2023-05-16T09:09:48;0.90;;;0.40;;
59434;SDS011;45241;49.768;8.636;2023-05-16T09:12:14;0.85;;;0.35;;
59434;SDS011;45241;49.768;8.636;2023-05-16T09:14:40;0.60;;;0.40;;
59434;SDS011;45241;49.768;8.636;2023-05-16T09:17:06;0.80;;;0.40;;
59434;SDS011;45241;49.768;8.636;2023-05-16T09:19:39;7.18;;;1.10;;
59434;SDS011;45241;49.768;8.636;2023-05-16T09:22:11;3.08;;;0.73;;
59434;SDS011;45241;49.768;8.636;2023-05-16T09:24:41;0.60;;;0.50;;
59434;SDS011;45241;49.768;8.636;2023-05-16T09:27:08;7.78;;;0.80;;
59434;SDS011;45241;49.768;8.636;2023-05-16T09:29:41;1.75;;;0.52;;
59434;SDS011;45241;49.768;8.636;2023-05-16T09:32:11;1.27;;;0.60;;
59434;SDS011;45241;49.768;8.636;2023-05-16T09:34:45;2.75;;;0.60;;
59434;SDS011;45241;49.768;8.636;2023-05-16T09:37:15;0.60;;;0.55;;
59434;SDS011;45241;49.768;8.636;2023-05-16T09:39:51;0.98;;;0.68;;
59434;SDS011;45241;49.768;8.636;2023-05-16T09:42:19;2.63;;;0.80;;
59434;SDS011;45241;49.768;8.636;2023-05-16T09:44:47;1.13;;;0.50;;
59434;SDS011;45241;49.768;8.636;2023-05-16T09:47:14;2.28;;;0.65;;
59434;SDS011;45241;49.768;8.636;2023-05-16T09:49:43;0.70;;;0.60;;
59434;SDS011;45241;49.768;8.636;2023-05-16T09:52:09;5.53;;;1.10;;
59434;SDS011;45241;49.768;8.636;2023-05-16T09:54:34;48.95;;;5.57;;
59434;SDS011;45241;49.768;8.636;2023-05-16T09:57:00;2.35;;;0.82;;
59434;SDS011;45241;49.768;8.636;2023-05-16T09:59:29;0.90;;;0.70;;
59434;SDS011;45241;49.768;8.636;2023-05-16T10:01:58;1.35;;;0.82;;
59434;SDS011;45241;49.768;8.636;2023-05-16T10:04:24;1.20;;;0.75;;
59434;SDS011;45241;49.768;8.636;2023-05-16T10:06:49;2.72;;;0.65;;
59434;SDS011;45241;49.768;8.636;2023-05-16T10:09:18;5.97;;;1.30;;
59434;SDS011;45241;49.768;8.636;2023-05-16T10:11:45;2.03;;;1.13;;
59434;SDS011;45241;49.768;8.636;2023-05-16T10:14:12;3.00;;;1.10;;
59434;SDS011;45241;49.768;8.636;2023-05-16T10:16:41;0.80;;;0.60;;
59434;SDS011;45241;49.768;8.636;2023-05-16T10:19:08;3.25;;;1.60;;
59434;SDS011;45241;49.768;8.636;2023-05-16T10:21:35;3.78;;;1.25;;
59434;SDS011;45241;49.768;8.636;2023-05-16T10:24:02;2.20;;;0.98;;
59434;SDS011;45241;49.768;8.636;2023-05-16T10:26:31;2.25;;;1.15;;
59434;SDS011;45241;49.768;8.636;2023-05-16T10:28:58;1.45;;;0.77;;
59434;SDS011;45241;49.768;8.636;2023-05-16T10:31:25;1.77;;;0.85;;
59434;SDS011;45241;49.768;8.636;2023-05-16T10:33:52;2.28;;;0.90;;
59434;SDS011;45241;49.768;8.636;2023-05-16T10:36:18;2.13;;;0.80;;
59434;SDS011;45241;49.768;8.636;2023-05-16T10:38:44;1.67;;;0.77;;
59434;SDS011;45241;49.768;8.636;2023-05-16T10:41:10;2.63;;;0.70;;
59434;SDS011;45241;49.768;8.636;2023-05-16T10:43:37;99.78;;;12.25;;
59434;SDS011;45241;49.768;8.636;2023-05-16T10:46:03;45.60;;;4.93;;
59434;SDS011;45241;49.768;8.636;2023-05-16T10:48:34;23.02;;;3.42;;
59434;SDS011;45241;49.768;8.636;2023-05-16T10:51:02;67.75;;;7.45;;
59434;SDS011;45241;49.768;8.636;2023-05-16T10:58:23;44.33;;;5.20;;
59434;SDS011;45241;49.768;8.636;2023-05-16T11:06:32;3.13;;;1.20;;
59434;SDS011;45241;49.768;8.636;2023-05-16T11:11:46;1.60;;;0.88;;
59434;SDS011;45241;49.768;8.636;2023-05-16T11:17:06;3.83;;;1.30;;
59434;SDS011;45241;49.768;8.636;2023-05-16T11:19:38;2.53;;;1.00;;
59434;SDS011;45241;49.768;8.636;2023-05-16T11:24:59;3.67;;;0.80;;
59434;SDS011;45241;49.768;8.636;2023-05-16T11:27:30;7.43;;;1.17;;
59434;SDS011;45241;49.768;8.636;2023-05-16T11:29:58;2.95;;;1.00;;
59434;SDS011;45241;49.768;8.636;2023-05-16T11:32:46;2.47;;;1.17;;
59434;SDS011;45241;49.768;8.636;2023-05-16T11:35:13;2.90;;;1.33;;
59434;SDS011;45241;49.768;8.636;2023-05-16T11:37:39;2.63;;;1.38;;
59434;SDS011;45241;49.768;8.636;2023-05-16T11:40:05;3.20;;;1.70;;
59434;SDS011;45241;49.768;8.636;2023-05-16T11:42:39;5.20;;;1.50;;
59434;SDS011;45241;49.768;8.636;2023-05-16T11:47:36;4.80;;;2.42;;
59434;SDS011;45241;49.768;8.636;2023-05-16T11:50:10;4.38;;;2.47;;
59434;SDS011;45241;49.768;8.636;2023-05-16T11:52:37;3.30;;;1.65;;
59434;SDS011;45241;49.768;8.636;2023-05-16T11:55:03;4.97;;;1.50;;
59434;SDS011;45241;49.768;8.636;2023-05-16T11:57:32;5.15;;;1.85;;
59434;SDS011;45241;49.768;8.636;2023-05-16T12:00:01;3.90;;;1.40;;
59434;SDS011;45241;49.768;8.636;2023-05-16T12:02:28;5.90;;;1.58;;
59434;SDS011;45241;49.768;8.636;2023-05-16T12:04:53;3.25;;;1.40;;
59434;SDS011;45241;49.768;8.636;2023-05-16T12:07:20;2.63;;;0.98;;
59434;SDS011;45241;49.768;8.636;2023-05-16T12:09:51;4.65;;;1.30;;
59434;SDS011;45241;49.768;8.636;2023-05-16T12:12:19;4.63;;;1.20;;
59434;SDS011;45241;49.768;8.636;2023-05-16T12:14:45;5.20;;;1.25;;
59434;SDS011;45241;49.768;8.636;2023-05-16T12:17:10;10.88;;;2.15;;
59434;SDS011;45241;49.768;8.636;2023-05-16T12:19:36;10.38;;;1.60;;
59434;SDS011;45241;49.768;8.636;2023-05-16T12:22:01;2.67;;;1.05;;
59434;SDS011;45241;49.768;8.636;2023-05-16T12:24:30;5.78;;;1.35;;
59434;SDS011;45241;49.768;8.636;2023-05-16T12:26:55;3.13;;;1.05;;
59434;SDS011;45241;49.768;8.636;2023-05-16T12:29:21;3.47;;;0.93;;
59434;SDS011;45241;49.768;8.636;2023-05-16T12:31:51;5.10;;;1.90;;
59434;SDS011;45241;49.768;8.636;2023-05-16T12:34:18;7.20;;;1.50;;
59434;SDS011;45241;49.768;8.636;2023-05-16T12:36:45;4.07;;;1.58;;
59434;SDS011;45241;49.768;8.636;2023-05-16T12:39:15;2.78;;;1.25;;
59434;SDS011;45241;49.768;8.636;2023-05-16T12:41:41;6.78;;;1.13;;
59434;SDS011;45241;49.768;8.636;2023-05-16T12:46:44;4.15;;;1.30;;
59434;SDS011;45241;49.768;8.636;2023-05-16T12:49:12;2.97;;;1.00;;
59434;SDS011;45241;49.768;8.636;2023-05-16T12:51:38;5.05;;;1.10;;
59434;SDS011;45241;49.768;8.636;2023-05-16T12:54:10;4.97;;;1.13;;
59434;SDS011;45241;49.768;8.636;2023-05-16T12:56:36;7.30;;;0.90;;
59434;SDS011;45241;49.768;8.636;2023-05-16T12:59:03;6.63;;;1.42;;
59434;SDS011;45241;49.768;8.636;2023-05-16T13:01:28;2.58;;;0.70;;
59434;SDS011;45241;49.768;8.636;2023-05-16T13:03:53;4.68;;;1.30;;
59434;SDS011;45241;49.768;8.636;2023-05-16T13:06:19;6.63;;;1.60;;
59434;SDS011;45241;49.768;8.636;2023-05-16T13:08:44;4.90;;;0.93;;
59434;SDS011;45241;49.768;8.636;2023-05-16T13:11:10;4.35;;;0.82;;
59434;SDS011;45241;49.768;8.636;2023-05-16T13:13:35;3.10;;;0.90;;
59434;SDS011;45241;49.768;8.636;2023-05-16T13:16:01;5.63;;;1.00;;
59434;SDS011;45241;49.768;8.636;2023-05-16T13:18:26;4.65;;;0.90;;
59434;SDS011;45241;49.768;8.636;2023-05-16T13:20:51;9.85;;;1.00;;
59434;SDS011;45241;49.768;8.636;2023-05-16T13:23:17;47.45;;;3.53;;
59434;SDS011;45241;49.768;8.636;2023-05-16T13:25:42;7.47;;;1.42;;
59434;SDS011;45241;49.768;8.636;2023-05-16T13:28:07;5.00;;;1.40;;
59434;SDS011;45241;49.768;8.636;2023-05-16T13:30:33;4.05;;;0.90;;
59434;SDS011;45241;49.768;8.636;2023-05-16T13:32:58;8.05;;;1.20;;
59434;SDS011;45241;49.768;8.636;2023-05-16T13:35:23;3.83;;;0.60;;
59434;SDS011;45241;49.768;8.636;2023-05-16T13:37:49;3.95;;;1.10;;
59434;SDS011;45241;49.768;8.636;2023-05-16T13:40:14;2.30;;;0.65;;
59434;SDS011;45241;49.768;8.636;2023-05-16T13:42:40;5.82;;;0.90;;
59434;SDS011;45241;49.768;8.636;2023-05-16T13:45:05;3.83;;;0.80;;
59434;SDS011;45241;49.768;8.636;2023-05-16T13:47:31;4.13;;;1.05;;
59434;SDS011;45241;49.768;8.636;2023-05-16T13:49:57;3.35;;;1.00;;
59434;SDS011;45241;49.768;8.636;2023-05-16T13:52:23;3.35;;;0.90;;
59434;SDS011;45241;49.768;8.636;2023-05-16T13:54:49;6.65;;;1.00;;
59434;SDS011;45241;49.768;8.636;2023-05-16T13:57:14;1.48;;;0.50;;
59434;SDS011;45241;49.768;8.636;2023-05-16T13:59:39;2.13;;;0.80;;
59434;SDS011;45241;49.768;8.636;2023-05-16T14:02:05;4.13;;;0.80;;
59434;SDS011;45241;49.768;8.636;2023-05-16T14:04:30;2.58;;;0.70;;
59434;SDS011;45241;49.768;8.636;2023-05-16T14:06:55;0.95;;;0.50;;
59434;SDS011;45241;49.768;8.636;2023-05-16T14:09:21;3.28;;;0.65;;
59434;SDS011;45241;49.768;8.636;2023-05-16T14:11:46;1.92;;;0.80;;
59434;SDS011;45241;49.768;8.636;2023-05-16T14:14:12;5.55;;;1.10;;
59434;SDS011;45241;49.768;8.636;2023-05-16T14:16:37;3.05;;;0.80;;
59434;SDS011;45241;49.768;8.636;2023-05-16T14:19:02;2.88;;;0.77;;
59434;SDS011;45241;49.768;8.636;2023-05-16T14:21:28;4.25;;;0.70;;
59434;SDS011;45241;49.768;8.636;2023-05-16T14:23:53;2.95;;;0.60;;
59434;SDS011;45241;49.768;8.636;2023-05-16T14:26:18;2.80;;;0.68;;
59434;SDS011;45241;49.768;8.636;2023-05-16T14:28:49;4.57;;;0.70;;
59434;SDS011;45241;49.768;8.636;2023-05-16T14:31:14;3.63;;;0.50;;
59434;SDS011;45241;49.768;8.636;2023-05-16T14:33:39;4.15;;;0.90;;
59434;SDS011;45241;49.768;8.636;2023-05-16T14:36:05;8.52;;;1.20;;
59434;SDS011;45241;49.768;8.636;2023-05-16T14:38:31;6.80;;;1.10;;
59434;SDS011;45241;49.768;8.636;2023-05-16T14:40:57;2.03;;;0.55;;
59434;SDS011;45241;49.768;8.636;2023-05-16T14:43:22;2.80;;;0.82;;
59434;SDS011;45241;49.768;8.636;2023-05-16T14:45:47;3.95;;;0.70;;
59434;SDS011;45241;49.768;8.636;2023-05-16T14:48:13;3.53;;;0.65;;
59434;SDS011;45241;49.768;8.636;2023-05-16T14:50:38;6.50;;;0.95;;
59434;SDS011;45241;49.768;8.636;2023-05-16T14:53:03;5.28;;;1.25;;
59434;SDS011;45241;49.768;8.636;2023-05-16T14:55:28;3.63;;;0.95;;
59434;SDS011;45241;49.768;8.636;2023-05-16T14:57:54;1.48;;;0.70;;
59434;SDS011;45241;49.768;8.636;2023-05-16T15:00:23;3.92;;;0.93;;
59434;SDS011;45241;49.768;8.636;2023-05-16T15:02:49;3.63;;;0.90;;